»·PEaware :: SWA663 KOKC-KLAS

SWA663 :: KOKC-KLAS

FLIGHT INFORMATION

Flight Status: Arrived
Operator:
Southwest Airlines
More flights by this operator :: More flights under this callsign
Pilot: Daniel W. (24238)
Aircraft: BOEING 737-800
(B738)
More flights by this aircraft type
Origin: KOKC Will Rogers World
United States
Destination: KLAS McCarran Intl
United States
More flights between these airports :: More routes between these airports
Route: STPHN3 ZEEWE KA36Y KD42S SINNN SITEE4
File this flight plan on PilotEdge
Remarks: PBN / A1D1O1S2T1 NAV / RNVD1E1A1 RNP10 DOF / 200331 REG / N8692F EET / KZAB0022 KZDV0108 KZLA0152 SEL / FSBJ CODE / ABF2EA PER / C
Altitude:
(Current/Filed)
40,000ft
Speed:
(Current/Filed)
454kts
Departed: 30-Mar-20 04:41 PM
Arrived: 30-Mar-20 07:14 PM
Distance/Time
Traveled:
854nm/2:33
Distance/Time
To Go:
Arrived

Flight Plot

Page will automatically refresh every two minutes.

Flight plan parsing failed; only flown route is shown


Map Options




Map Legend


Flown Route
Filed Route
Departure Airport
Arrival Airport
Navaid (VOR, NDB)
Fix

Horizontal Profiles

Position Reports

Time Latitude Longitude Heading Altitude Ground
Speed
30-Mar-20 15:57 35.394620 -97.596967 34 1303ft 0kts
30-Mar-20 15:58 35.394620 -97.596967 34 1303ft 0kts
30-Mar-20 15:59 35.394620 -97.596967 34 1303ft 0kts
30-Mar-20 16:00 35.394620 -97.596967 34 1303ft 0kts
30-Mar-20 16:01 35.394620 -97.596967 34 1303ft 0kts
30-Mar-20 16:02 35.394620 -97.596967 34 1303ft 0kts
30-Mar-20 16:03 35.394620 -97.596967 34 1303ft 0kts
30-Mar-20 16:04 35.394620 -97.596967 34 1303ft 0kts
30-Mar-20 16:05 35.394620 -97.596967 34 1303ft 0kts
30-Mar-20 16:05 35.394620 -97.596967 34 1303ft 0kts
30-Mar-20 16:06 35.394620 -97.596967 34 1303ft 0kts
30-Mar-20 16:08 35.394620 -97.596967 34 1303ft 0kts
30-Mar-20 16:08 35.394620 -97.596967 34 1303ft 0kts
30-Mar-20 16:09 35.394620 -97.596967 34 1303ft 0kts
30-Mar-20 16:10 35.394620 -97.596967 34 1303ft 0kts
30-Mar-20 16:12 35.394620 -97.596967 34 1303ft 0kts
30-Mar-20 16:12 35.394620 -97.596967 34 1303ft 0kts
30-Mar-20 16:13 35.394620 -97.596967 34 1303ft 0kts
30-Mar-20 16:14 35.394620 -97.596967 34 1303ft 0kts
30-Mar-20 16:15 35.394620 -97.596967 34 1303ft 0kts
30-Mar-20 16:16 35.394620 -97.596967 34 1303ft 0kts
30-Mar-20 16:17 35.394620 -97.596967 34 1303ft 0kts
30-Mar-20 16:18 35.394620 -97.596967 34 1303ft 0kts
30-Mar-20 16:19 35.394620 -97.596967 34 1303ft 0kts
30-Mar-20 16:20 35.394620 -97.596967 34 1303ft 0kts
30-Mar-20 16:21 35.394620 -97.596967 34 1303ft 0kts
30-Mar-20 16:22 35.394620 -97.596967 34 1303ft 0kts
30-Mar-20 16:23 35.394620 -97.596967 34 1303ft 0kts
30-Mar-20 16:24 35.394620 -97.596967 34 1303ft 0kts
30-Mar-20 16:25 35.394620 -97.596967 34 1303ft 0kts
30-Mar-20 16:26 35.394620 -97.596967 34 1303ft 0kts
30-Mar-20 16:27 35.394620 -97.596967 34 1303ft 0kts
30-Mar-20 16:28 35.394620 -97.596967 34 1303ft 0kts
30-Mar-20 16:29 35.394620 -97.596967 34 1303ft 0kts
30-Mar-20 16:30 35.394620 -97.596967 34 1303ft 0kts
30-Mar-20 16:31 35.394612 -97.596974 34 1303ft 0kts
30-Mar-20 16:32 35.393930 -97.596970 334 1303ft 2kts
30-Mar-20 16:33 35.393877 -97.596939 337 1303ft 0kts
30-Mar-20 16:34 35.393877 -97.596939 337 1303ft 0kts
30-Mar-20 16:35 35.393877 -97.596939 337 1303ft 0kts
30-Mar-20 16:36 35.394273 -97.599892 287 1303ft 13kts
30-Mar-20 16:37 35.397096 -97.603976 354 1303ft 18kts
30-Mar-20 16:38 35.402677 -97.604012 0 1303ft 20kts
30-Mar-20 16:39 35.405501 -97.605749 180 1303ft 9kts
30-Mar-20 16:40 35.378801 -97.606107 184 2147ft 171kts
30-Mar-20 16:41 35.328527 -97.639442 228 4991ft 243kts
30-Mar-20 16:42 35.341716 -97.725562 288 8822ft 282kts
30-Mar-20 16:43 35.371565 -97.817554 286 12600ft 311kts
30-Mar-20 16:44 35.406878 -97.927397 286 15036ft 365kts
30-Mar-20 16:45 35.444815 -98.045397 285 18233ft 380kts
30-Mar-20 16:46 35.477183 -98.169540 273 21214ft 381kts
30-Mar-20 16:47 35.487924 -98.299389 271 23757ft 387kts
30-Mar-20 16:48 35.500547 -98.431295 270 26049ft 390kts
30-Mar-20 16:49 35.512147 -98.564121 269 27970ft 394kts
30-Mar-20 16:50 35.523623 -98.698488 269 29554ft 398kts
30-Mar-20 16:51 35.535382 -98.832358 269 31454ft 391kts
30-Mar-20 16:52 35.546495 -98.964191 269 33245ft 385kts
30-Mar-20 16:53 35.557232 -99.094250 270 34937ft 380kts
30-Mar-20 16:54 35.572558 -99.222301 276 36460ft 380kts
30-Mar-20 16:55 35.593954 -99.348990 275 37864ft 376kts
30-Mar-20 16:56 35.614446 -99.474512 276 39127ft 373kts
30-Mar-20 16:57 35.635042 -99.600514 277 39966ft 378kts
30-Mar-20 16:58 35.656188 -99.728468 277 40026ft 382kts
30-Mar-20 16:59 35.676872 -99.856496 276 40027ft 383kts
30-Mar-20 17:00 35.697390 -99.984860 276 40032ft 383kts
30-Mar-20 17:01 35.717890 -100.114143 276 40038ft 384kts
30-Mar-20 17:02 35.738189 -100.243116 276 40045ft 384kts
30-Mar-20 17:03 35.758319 -100.371966 276 40051ft 383kts
30-Mar-20 17:04 35.778240 -100.500410 276 40043ft 382kts
30-Mar-20 17:05 35.798014 -100.628871 276 40016ft 382kts
30-Mar-20 17:06 35.817721 -100.757824 276 40013ft 381kts
30-Mar-20 17:07 35.837239 -100.886529 276 40027ft 382kts
30-Mar-20 17:08 35.856671 -101.015277 276 40042ft 384kts
30-Mar-20 17:09 35.875931 -101.144521 277 40044ft 383kts
30-Mar-20 17:10 35.895117 -101.273964 277 40043ft 385kts
30-Mar-20 17:11 35.914313 -101.404473 277 40038ft 386kts
30-Mar-20 17:12 35.933391 -101.535211 277 40024ft 388kts
30-Mar-20 17:13 35.952708 -101.666432 277 40016ft 389kts
30-Mar-20 17:14 35.971528 -101.798036 277 40013ft 390kts
30-Mar-20 17:15 35.990132 -101.929937 277 40011ft 390kts
30-Mar-20 17:16 36.011125 -102.061648 280 40009ft 392kts
30-Mar-20 17:17 36.036716 -102.192452 280 40010ft 391kts
30-Mar-20 17:18 36.061636 -102.323330 279 40010ft 392kts
30-Mar-20 17:19 36.086807 -102.455038 280 40010ft 393kts
30-Mar-20 17:20 36.112102 -102.586526 280 40010ft 394kts
30-Mar-20 17:21 36.137109 -102.718971 280 40012ft 395kts
30-Mar-20 17:22 36.161845 -102.851261 280 40016ft 395kts
30-Mar-20 17:23 36.186514 -102.984165 280 40022ft 396kts
30-Mar-20 17:24 36.210982 -103.116858 280 40025ft 395kts
30-Mar-20 17:25 36.235351 -103.249925 280 40029ft 395kts
30-Mar-20 17:26 36.259487 -103.382582 280 40031ft 395kts
30-Mar-20 17:27 36.283523 -103.515588 280 40033ft 394kts
30-Mar-20 17:28 36.307295 -103.648023 280 40043ft 394kts
30-Mar-20 17:29 36.330882 -103.780320 280 40059ft 393kts
30-Mar-20 17:30 36.354310 -103.912631 280 40071ft 393kts
30-Mar-20 17:31 36.377607 -104.045109 280 40083ft 393kts
30-Mar-20 17:32 36.400776 -104.177757 280 40092ft 393kts
30-Mar-20 17:33 36.423809 -104.310550 280 40101ft 393kts
30-Mar-20 17:34 36.446676 -104.443320 280 40123ft 394kts
30-Mar-20 17:35 36.469461 -104.576552 280 40130ft 394kts
30-Mar-20 17:36 36.492222 -104.710583 280 40141ft 395kts
30-Mar-20 17:37 36.514747 -104.844182 280 40158ft 395kts
30-Mar-20 17:38 36.537103 -104.977744 280 40183ft 395kts
30-Mar-20 17:39 36.559370 -105.111741 280 40206ft 395kts
30-Mar-20 17:40 36.581445 -105.245565 280 40218ft 395kts
30-Mar-20 17:41 36.603436 -105.379868 280 40216ft 394kts
30-Mar-20 17:42 36.625119 -105.513273 280 40217ft 394kts
30-Mar-20 17:43 36.646738 -105.647279 280 40213ft 394kts
30-Mar-20 17:44 36.668167 -105.781110 280 40209ft 394kts
30-Mar-20 17:45 36.689422 -105.914872 280 40213ft 394kts
30-Mar-20 17:46 36.710530 -106.048723 280 40220ft 392kts
30-Mar-20 17:47 36.731374 -106.181906 280 40226ft 392kts
30-Mar-20 17:48 36.752104 -106.315398 280 40234ft 391kts
30-Mar-20 17:49 36.772725 -106.449203 280 40245ft 392kts
30-Mar-20 17:50 36.793163 -106.582876 280 40238ft 392kts
30-Mar-20 17:51 36.813486 -106.716855 280 40217ft 393kts
30-Mar-20 17:52 36.833614 -106.850593 280 40238ft 392kts
30-Mar-20 17:53 36.853606 -106.984497 280 40264ft 392kts
30-Mar-20 17:54 36.873408 -107.118211 280 40240ft 392kts
30-Mar-20 17:55 36.893075 -107.252090 280 40222ft 390kts
30-Mar-20 17:56 36.912527 -107.385590 280 40219ft 390kts
30-Mar-20 17:57 36.931764 -107.518699 280 40216ft 389kts
30-Mar-20 17:58 36.951154 -107.651865 280 40213ft 389kts
30-Mar-20 17:59 36.970127 -107.785652 280 40212ft 389kts
30-Mar-20 18:01 36.988705 -107.918873 280 40213ft 389kts
30-Mar-20 18:02 37.002343 -108.053087 273 40216ft 388kts
30-Mar-20 18:03 37.005322 -108.188020 273 40218ft 388kts
30-Mar-20 18:04 37.008467 -108.322596 273 40221ft 387kts
30-Mar-20 18:05 37.011857 -108.457550 273 40222ft 387kts
30-Mar-20 18:06 37.015655 -108.591978 273 40241ft 387kts
30-Mar-20 18:07 37.018946 -108.726391 273 40250ft 386kts
30-Mar-20 18:08 37.022000 -108.860881 273 40253ft 386kts
30-Mar-20 18:09 37.024880 -108.995175 273 40258ft 386kts
30-Mar-20 18:10 37.027596 -109.129077 273 40261ft 385kts
30-Mar-20 18:11 37.030170 -109.263512 272 40266ft 384kts
30-Mar-20 18:12 37.032573 -109.396778 272 40271ft 384kts
30-Mar-20 18:13 37.034836 -109.530710 272 40276ft 384kts
30-Mar-20 18:14 37.036944 -109.664262 272 40276ft 383kts
30-Mar-20 18:15 37.038898 -109.797577 272 40282ft 383kts
30-Mar-20 18:16 37.040706 -109.931068 272 40287ft 383kts
30-Mar-20 18:17 37.042358 -110.064246 272 40281ft 381kts
30-Mar-20 18:18 37.043861 -110.197116 272 40274ft 382kts
30-Mar-20 18:18 37.045002 -110.308012 272 40267ft 382kts
30-Mar-20 18:20 37.046423 -110.463174 272 40257ft 382kts
30-Mar-20 18:21 37.047480 -110.596104 272 40248ft 382kts
30-Mar-20 18:22 37.048389 -110.729100 272 40238ft 382kts
30-Mar-20 18:23 37.049150 -110.862174 272 40228ft 382kts
30-Mar-20 18:23 37.049669 -110.972735 271 40221ft 382kts
30-Mar-20 18:25 37.050225 -111.127834 271 40212ft 381kts
30-Mar-20 18:26 37.050542 -111.260822 271 40207ft 381kts
30-Mar-20 18:26 37.050693 -111.371353 271 40204ft 381kts
30-Mar-20 18:28 37.051091 -111.525969 271 40206ft 381kts
30-Mar-20 18:28 37.050880 -111.636686 271 40211ft 381kts
30-Mar-20 18:29 37.050445 -111.769253 271 40225ft 381kts
30-Mar-20 18:30 37.042438 -111.901859 263 40242ft 383kts
30-Mar-20 18:31 37.025088 -112.033403 263 40260ft 383kts
30-Mar-20 18:32 37.008270 -112.165483 263 40278ft 383kts
30-Mar-20 18:33 36.990758 -112.296701 263 40292ft 383kts
30-Mar-20 18:34 36.973034 -112.428401 263 40298ft 384kts
30-Mar-20 18:35 36.955208 -112.560403 263 40299ft 384kts
30-Mar-20 18:36 36.937257 -112.691623 263 40300ft 383kts
30-Mar-20 18:37 36.919112 -112.823176 263 40300ft 384kts
30-Mar-20 18:38 36.901377 -112.954638 263 40300ft 384kts
30-Mar-20 18:39 36.883323 -113.086175 262 40153ft 385kts
30-Mar-20 18:40 36.865306 -113.217662 263 37321ft 384kts
30-Mar-20 18:41 36.846558 -113.349939 264 34022ft 389kts
30-Mar-20 18:42 36.827540 -113.482585 264 31180ft 382kts
30-Mar-20 18:43 36.790632 -113.606525 247 28751ft 383kts
30-Mar-20 18:44 36.739327 -113.721238 246 26408ft 373kts
30-Mar-20 18:45 36.689727 -113.832761 246 24135ft 362kts
30-Mar-20 18:46 36.640863 -113.940777 246 21902ft 353kts
30-Mar-20 18:47 36.593143 -114.045923 245 19697ft 345kts
30-Mar-20 18:48 36.544336 -114.147464 242 17486ft 341kts
30-Mar-20 18:49 36.493127 -114.246684 241 15217ft 337kts
30-Mar-20 18:50 36.443163 -114.343775 241 13129ft 330kts
30-Mar-20 18:51 36.394620 -114.437960 240 12066ft 310kts
30-Mar-20 18:52 36.338328 -114.513482 227 11345ft 292kts
30-Mar-20 18:53 36.280939 -114.583927 227 10082ft 287kts
30-Mar-20 18:54 36.224810 -114.654974 227 10005ft 290kts
30-Mar-20 18:55 36.168639 -114.726314 227 9994ft 289kts
30-Mar-20 18:56 36.112505 -114.797640 227 9995ft 289kts
30-Mar-20 18:57 36.056581 -114.869147 227 9939ft 288kts
30-Mar-20 18:58 36.001734 -114.940460 227 8695ft 285kts
30-Mar-20 18:59 35.948210 -115.011612 227 7304ft 280kts
30-Mar-20 19:00 35.895739 -115.080901 227 7010ft 276kts
30-Mar-20 19:01 35.841070 -115.147931 214 7008ft 278kts
30-Mar-20 19:02 35.775391 -115.198889 212 7004ft 278kts
30-Mar-20 19:03 35.710045 -115.249418 214 7003ft 278kts
30-Mar-20 19:04 35.713225 -115.326153 336 7001ft 280kts
30-Mar-20 19:05 35.789654 -115.327024 4 6995ft 258kts
30-Mar-20 19:06 35.851378 -115.305199 27 7004ft 217kts
30-Mar-20 19:07 35.903618 -115.272792 26 6931ft 195kts
30-Mar-20 19:08 35.949222 -115.242851 32 5868ft 177kts
30-Mar-20 19:09 35.990251 -115.215942 27 4690ft 159kts
30-Mar-20 19:10 36.027295 -115.194834 26 3535ft 142kts
30-Mar-20 19:11 36.061568 -115.174910 28 2544ft 135kts
30-Mar-20 19:12 36.087824 -115.159721 27 2189ft 43kts
30-Mar-20 19:13 36.091004 -115.156211 68 2189ft 8kts
30-Mar-20 19:14 36.086790 -115.157942 177 2189ft 16kts
30-Mar-20 19:15 36.081677 -115.155016 154 2189ft 16kts
30-Mar-20 19:16 36.078775 -115.151171 91 2189ft 19kts
30-Mar-20 19:17 36.078405 -115.145095 74 2189ft 6kts
30-Mar-20 19:18 36.081088 -115.145078 334 2189ft 10kts
30-Mar-20 19:19 36.081224 -115.146139 254 2189ft 0kts
30-Mar-20 19:20 36.081224 -115.146139 254 2189ft 0kts
30-Mar-20 19:21 36.081224 -115.146139 254 2189ft 0kts
30-Mar-20 19:22 36.081224 -115.146139 254 2189ft 0kts
30-Mar-20 19:23 36.081224 -115.146139 254 2189ft 0kts
30-Mar-20 19:24 36.081224 -115.146139 254 2189ft 0kts
30-Mar-20 19:25 36.081224 -115.146139 254 2189ft 0kts
30-Mar-20 19:26 36.081224 -115.146139 254 2189ft 0kts
30-Mar-20 19:27 36.081224 -115.146139 254 2189ft 0kts

Navigation Log

Ident Type
Flight plan parsing failed, navigation log unavailable